Time;durP1;ratioP1;P1;durP2;ratioP2;P2;SDS_P1;SDS_P2;PMS_P1;PMS_P2;Temp;Humidity;BMP_temperature;BMP_pressure;BME280_temperature;BME280_humidity;BME280_pressure;Samples;Min_cycle;Max_cycle;Signal;HPM_P1;HPM_P2
2022/03/01 00:01:28;;;;;;;0.65;0.40;;;;;;;14.16;100.00;101046.41;5049883;28;20563;-73
2022/03/01 00:03:56;;;;;;;3.25;0.60;;;;;;;14.12;100.00;101048.06;5035340;28;20419;-71
2022/03/01 00:06:25;;;;;;;3.03;0.50;;;;;;;14.17;100.00;101048.16;5049097;28;20049;-72
2022/03/01 00:08:54;;;;;;;0.77;0.50;;;;;;;14.13;100.00;101043.72;5050292;28;20045;-74
2022/03/01 00:11:22;;;;;;;0.82;0.35;;;;;;;14.12;100.00;101052.41;5036418;28;20433;-76
2022/03/01 00:13:51;;;;;;;0.57;0.40;;;;;;;14.10;100.00;101065.38;5050231;28;20056;-76
2022/03/01 00:16:22;;;;;;;1.67;0.57;;;;;;;14.08;100.00;101066.19;5050430;28;20114;-74
2022/03/01 00:18:50;;;;;;;0.60;0.40;;;;;;;14.07;100.00;101080.06;5050383;28;20106;-76
2022/03/01 00:21:19;;;;;;;1.20;0.43;;;;;;;14.04;100.00;101073.03;5049278;28;20045;-73
2022/03/01 00:23:47;;;;;;;2.58;0.40;;;;;;;14.06;100.00;101075.69;5049743;28;20052;-76
2022/03/01 00:26:16;;;;;;;0.90;0.43;;;;;;;14.07;100.00;101067.91;5048923;28;20129;-79
2022/03/01 00:28:44;;;;;;;2.50;0.40;;;;;;;14.06;100.00;101049.66;5049137;28;20629;-74
2022/03/01 00:31:13;;;;;;;0.82;0.50;;;;;;;14.08;100.00;101055.78;5049104;28;20106;-77
2022/03/01 00:33:43;;;;;;;0.98;0.40;;;;;;;14.07;100.00;101038.44;5048723;28;20045;-78
2022/03/01 00:36:12;;;;;;;0.57;0.50;;;;;;;14.10;100.00;101036.75;5049567;28;20135;-75
2022/03/01 00:38:41;;;;;;;0.52;0.30;;;;;;;14.09;100.00;101031.50;5049028;28;20095;-76
2022/03/01 00:41:09;;;;;;;0.45;0.30;;;;;;;14.08;100.00;101016.75;5049440;28;20041;-77
2022/03/01 00:43:38;;;;;;;0.75;0.47;;;;;;;14.09;100.00;101024.59;5049477;28;20048;-77
2022/03/01 00:46:06;;;;;;;1.58;0.57;;;;;;;14.16;100.00;101015.19;5049237;28;20045;-75
2022/03/01 00:48:35;;;;;;;1.17;0.38;;;;;;;14.17;100.00;101014.31;5049218;28;20082;-73
2022/03/01 00:51:05;;;;;;;0.57;0.40;;;;;;;14.19;100.00;101010.03;5049088;28;20045;-75
2022/03/01 00:53:33;;;;;;;2.42;0.50;;;;;;;14.22;100.00;101010.97;5035359;28;20053;-74
2022/03/01 00:56:04;;;;;;;1.13;0.50;;;;;;;14.23;100.00;101012.72;5049265;28;20053;-75
2022/03/01 00:58:32;;;;;;;0.65;0.32;;;;;;;14.24;100.00;101029.19;5049520;28;20132;-74
2022/03/01 01:01:01;;;;;;;0.80;0.47;;;;;;;14.27;100.00;101031.88;5049027;28;20483;-77
2022/03/01 01:03:29;;;;;;;2.30;0.50;;;;;;;14.33;100.00;101028.50;5036302;28;20138;-76
2022/03/01 01:05:58;;;;;;;0.88;0.43;;;;;;;14.35;100.00;101040.69;5049497;28;20130;-74
2022/03/01 01:08:28;;;;;;;0.95;0.30;;;;;;;14.33;100.00;101018.09;5050700;28;20053;-75
2022/03/01 01:10:57;;;;;;;1.00;0.40;;;;;;;14.38;100.00;101025.13;5049589;28;20045;-73
2022/03/01 01:13:25;;;;;;;1.55;0.50;;;;;;;14.42;100.00;101024.31;5049069;28;20102;-73
2022/03/01 01:15:54;;;;;;;0.93;0.47;;;;;;;14.42;100.00;101021.72;5048992;28;20088;-75
2022/03/01 01:18:22;;;;;;;0.40;0.30;;;;;;;14.39;100.00;101029.50;5048676;28;20049;-77
2022/03/01 01:20:51;;;;;;;4.30;0.52;;;;;;;14.39;100.00;101015.59;5048736;28;20130;-77
2022/03/01 01:23:19;;;;;;;1.25;0.40;;;;;;;14.38;100.00;101034.66;5048179;28;20049;-78
2022/03/01 01:25:49;;;;;;;0.60;0.40;;;;;;;14.35;100.00;101027.69;5049934;28;20077;-78
2022/03/01 01:28:18;;;;;;;0.63;0.43;;;;;;;14.36;100.00;101026.84;5052071;28;20077;-78
2022/03/01 01:30:47;;;;;;;0.80;0.77;;;;;;;14.33;100.00;101023.28;5052296;28;20126;-75
2022/03/01 01:33:15;;;;;;;0.90;0.43;;;;;;;14.31;100.00;101031.06;5052434;28;20045;-79
2022/03/01 01:35:44;;;;;;;1.42;0.35;;;;;;;14.30;100.00;101012.84;5051327;28;20048;-73
2022/03/01 01:38:12;;;;;;;0.30;0.30;;;;;;;14.28;100.00;101019.75;5052988;28;20056;-73
2022/03/01 01:40:41;;;;;;;0.80;0.40;;;;;;;14.20;100.00;101012.66;5052430;28;20083;-73
2022/03/01 01:43:11;;;;;;;0.88;0.30;;;;;;;14.23;100.00;101002.31;5051972;28;20052;-74
2022/03/01 01:45:40;;;;;;;0.60;0.22;;;;;;;14.25;100.00;101005.81;5052223;28;20099;-74
2022/03/01 01:48:08;;;;;;;0.60;0.30;;;;;;;14.22;100.00;101000.56;5052495;28;20049;-73
2022/03/01 01:50:37;;;;;;;0.88;0.50;;;;;;;14.27;100.00;101002.34;5052497;28;20109;-74
2022/03/01 01:53:06;;;;;;;0.73;0.30;;;;;;;14.22;100.00;100992.75;5037710;28;20055;-76
2022/03/01 01:55:34;;;;;;;2.00;0.50;;;;;;;14.21;100.00;100992.72;5052487;28;20495;-79
2022/03/01 01:58:03;;;;;;;1.58;0.30;;;;;;;14.18;100.00;100961.44;5052493;28;20049;-78
2022/03/01 02:00:33;;;;;;;0.80;0.30;;;;;;;14.14;100.00;100975.25;5052489;28;20045;-76
2022/03/01 02:03:04;;;;;;;1.05;0.65;;;;;;;14.17;100.00;100980.50;5043540;28;20053;-75
2022/03/01 02:05:38;;;;;;;0.47;0.10;;;;;;;14.14;100.00;100996.06;5051192;28;20107;-77
2022/03/01 02:08:07;;;;;;;4.30;0.60;;;;;;;14.11;100.00;100996.88;5052567;28;20048;-80
2022/03/01 02:10:36;;;;;;;0.40;0.30;;;;;;;14.09;100.00;101003.78;5051355;28;20048;-78
2022/03/01 02:13:04;;;;;;;0.25;0.20;;;;;;;14.07;100.00;100997.66;5051421;28;20102;-75
2022/03/01 02:15:36;;;;;;;1.00;0.60;;;;;;;14.06;100.00;101002.81;5050607;28;20067;-76
2022/03/01 02:18:05;;;;;;;0.40;0.20;;;;;;;14.07;100.00;100986.38;5049796;28;20080;-78
2022/03/01 02:20:36;;;;;;;1.67;0.38;;;;;;;14.09;100.00;100997.66;5050558;28;20056;-79
2022/03/01 02:23:04;;;;;;;0.20;0.20;;;;;;;14.09;100.00;100975.16;5050153;28;20132;-76
2022/03/01 02:25:32;;;;;;;1.20;0.25;;;;;;;14.10;100.00;100979.50;5050610;28;20114;-76
2022/03/01 02:28:01;;;;;;;0.30;0.17;;;;;;;14.12;100.00;100987.34;5051233;28;20057;-73
2022/03/01 02:30:30;;;;;;;1.27;0.30;;;;;;;14.11;100.00;100991.69;5051012;28;20095;-71
2022/03/01 02:32:58;;;;;;;0.68;0.20;;;;;;;14.13;100.00;100994.28;5051176;28;20041;-71
2022/03/01 02:35:27;;;;;;;0.57;0.30;;;;;;;14.14;100.00;101002.13;5051772;28;20061;-72
2022/03/01 02:37:57;;;;;;;1.45;0.40;;;;;;;14.17;100.00;101011.72;5051351;28;20110;-71
2022/03/01 02:40:26;;;;;;;0.55;0.20;;;;;;;14.19;100.00;101015.22;5051818;28;20048;-71
2022/03/01 02:42:54;;;;;;;0.80;0.40;;;;;;;14.18;100.00;101003.09;5037125;28;20080;-71
2022/03/01 02:45:23;;;;;;;0.63;0.20;;;;;;;14.18;100.00;101005.69;5051037;28;20053;-71
2022/03/01 02:47:53;;;;;;;0.70;0.40;;;;;;;14.20;100.00;100985.75;5051436;28;20099;-73
2022/03/01 02:50:21;;;;;;;0.50;0.30;;;;;;;14.21;100.00;100995.31;5051421;28;20577;-72
2022/03/01 02:52:50;;;;;;;1.50;0.30;;;;;;;14.21;100.00;100983.19;5050732;28;20045;-74
2022/03/01 02:55:20;;;;;;;0.90;0.20;;;;;;;14.14;100.00;100970.91;5051357;28;20048;-76
2022/03/01 02:57:49;;;;;;;2.05;0.28;;;;;;;14.21;100.00;100982.31;5051607;28;20099;-80
2022/03/01 03:00:18;;;;;;;0.63;0.30;;;;;;;14.18;100.00;100980.53;5053465;28;20099;-76
2022/03/01 03:02:46;;;;;;;0.22;0.22;;;;;;;14.19;100.00;100984.00;5050726;28;20052;-77
2022/03/01 03:05:15;;;;;;;0.52;0.22;;;;;;;14.20;100.00;100977.94;5052209;28;20144;-76
2022/03/01 03:07:44;;;;;;;0.30;0.20;;;;;;;14.21;100.00;100982.31;5049808;28;20052;-72
2022/03/01 03:10:12;;;;;;;1.13;0.40;;;;;;;14.23;100.00;100984.09;5049351;28;20099;-71
2022/03/01 03:12:43;;;;;;;0.65;0.40;;;;;;;14.27;100.00;100977.22;5048902;28;20132;-72
2022/03/01 03:15:12;;;;;;;2.95;0.75;;;;;;;14.29;100.00;100977.22;5035314;28;20071;-71
2022/03/01 03:17:41;;;;;;;1.35;0.43;;;;;;;14.29;100.00;100978.09;5050145;28;20060;-71
2022/03/01 03:20:10;;;;;;;1.40;0.30;;;;;;;14.32;100.00;100978.16;5049767;28;20053;-74
2022/03/01 03:22:39;;;;;;;0.85;0.35;;;;;;;14.37;100.00;100986.94;5049526;28;20044;-75
2022/03/01 03:25:09;;;;;;;0.30;0.30;;;;;;;14.39;100.00;100987.84;5050187;28;20080;-76
2022/03/01 03:27:37;;;;;;;0.75;0.50;;;;;;;14.43;100.00;101002.66;5050333;28;20367;-76
2022/03/01 03:30:09;;;;;;;1.27;0.60;;;;;;;14.44;100.00;101001.81;5049993;28;20110;-75
2022/03/01 03:32:38;;;;;;;1.20;0.40;;;;;;;14.46;100.00;101013.13;5049642;28;20094;-75
2022/03/01 03:35:08;;;;;;;1.27;0.43;;;;;;;14.52;100.00;101008.88;5050216;28;20060;-74
2022/03/01 03:37:36;;;;;;;1.05;0.30;;;;;;;14.52;100.00;101003.66;5049566;28;20103;-75
2022/03/01 03:40:06;;;;;;;1.33;0.40;;;;;;;14.56;100.00;101000.31;5050235;28;20053;-74
2022/03/01 03:42:34;;;;;;;0.50;0.30;;;;;;;14.59;100.00;100992.53;5049553;28;20045;-76
2022/03/01 03:45:03;;;;;;;0.80;0.38;;;;;;;14.61;100.00;100998.66;5050218;28;20048;-77
2022/03/01 03:47:33;;;;;;;1.60;0.52;;;;;;;14.67;100.00;101003.97;5049712;28;20110;-77
2022/03/01 03:50:02;;;;;;;0.65;0.40;;;;;;;14.69;100.00;101002.28;5049972;28;20099;-76
2022/03/01 03:52:30;;;;;;;0.82;0.35;;;;;;;14.70;100.00;101010.94;5039310;28;20053;-74
2022/03/01 03:54:59;;;;;;;2.10;0.40;;;;;;;14.73;100.00;101006.69;5047705;28;20052;-75
2022/03/01 03:57:27;;;;;;;1.27;0.38;;;;;;;14.76;100.00;101011.94;5049572;28;20092;-76
2022/03/01 03:59:56;;;;;;;1.25;0.40;;;;;;;14.75;100.00;101011.91;5050000;28;20045;-75
2022/03/01 04:02:24;;;;;;;1.25;0.38;;;;;;;14.71;100.00;101011.00;5049200;28;20052;-74
2022/03/01 04:04:55;;;;;;;0.70;0.38;;;;;;;14.76;100.00;101018.88;5050264;28;20513;-75
2022/03/01 04:07:23;;;;;;;1.38;0.47;;;;;;;14.78;100.00;101038.88;5048785;28;20048;-74
2022/03/01 04:09:52;;;;;;;2.47;0.40;;;;;;;14.79;100.00;101043.22;5049131;28;20049;-73
2022/03/01 04:12:21;;;;;;;1.15;0.60;;;;;;;14.81;100.00;101044.13;5046036;28;20055;-76
2022/03/01 04:14:49;;;;;;;1.88;0.38;;;;;;;14.78;100.00;101044.09;5047600;28;20045;-77
2022/03/01 04:17:18;;;;;;;0.60;0.38;;;;;;;14.76;100.00;101050.13;5049329;28;20049;-77
2022/03/01 04:19:46;;;;;;;3.58;0.80;;;;;;;14.72;100.00;101049.19;5048745;28;20498;-71
2022/03/01 04:22:16;;;;;;;0.73;0.43;;;;;;;14.75;100.00;101046.66;5048932;28;20565;-71
2022/03/01 04:24:46;;;;;;;2.38;0.43;;;;;;;14.72;100.00;101049.19;5049493;28;20471;-71
2022/03/01 04:27:21;;;;;;;1.23;0.47;;;;;;;14.72;100.00;101053.53;5035071;28;20407;-71
2022/03/01 04:29:50;;;;;;;3.67;0.70;;;;;;;14.67;100.00;101050.84;5049192;28;20049;-72
2022/03/01 04:32:18;;;;;;;2.20;1.00;;;;;;;14.73;100.00;101053.56;5048882;28;20564;-71
2022/03/01 04:34:50;;;;;;;2.15;0.40;;;;;;;14.74;100.00;101055.31;5049608;28;20099;-73
2022/03/01 04:37:20;;;;;;;1.67;0.52;;;;;;;14.71;100.00;101059.59;5049154;28;20037;-72
2022/03/01 04:39:48;;;;;;;3.25;0.68;;;;;;;14.70;100.00;101069.13;5048992;28;20041;-72
2022/03/01 04:42:17;;;;;;;1.55;0.95;;;;;;;14.70;100.00;101063.91;5048322;28;20119;-71
2022/03/01 04:44:45;;;;;;;1.27;0.50;;;;;;;14.69;100.00;101069.97;5048595;28;20084;-71
2022/03/01 04:47:15;;;;;;;1.02;0.40;;;;;;;14.71;100.00;101073.50;5048737;28;20107;-74
2022/03/01 04:49:43;;;;;;;1.25;0.40;;;;;;;14.70;100.00;101069.13;5049919;28;20128;-74
2022/03/01 04:52:12;;;;;;;0.70;0.47;;;;;;;14.72;100.00;101080.44;5042234;28;20057;-74
2022/03/01 04:54:43;;;;;;;1.77;0.50;;;;;;;14.71;100.00;101083.91;5043858;28;20076;-76
2022/03/01 04:57:11;;;;;;;1.58;0.60;;;;;;;14.66;100.00;101085.56;5035874;28;20052;-76
2022/03/01 04:59:40;;;;;;;0.30;0.30;;;;;;;14.66;100.00;101091.66;5050292;28;20049;-74
2022/03/01 05:02:15;;;;;;;0.98;0.35;;;;;;;14.70;100.00;101094.28;5050612;28;20132;-75
2022/03/01 05:04:46;;;;;;;3.25;0.52;;;;;;;14.66;100.00;101096.84;5041471;28;20057;-75
2022/03/01 05:07:16;;;;;;;1.20;0.60;;;;;;;14.66;100.00;101099.47;5053439;28;20053;-75
2022/03/01 05:09:46;;;;;;;0.65;0.30;;;;;;;14.64;100.00;101111.56;5052919;28;20051;-74
2022/03/01 05:12:15;;;;;;;1.08;0.43;;;;;;;14.58;100.00;101105.38;5045597;28;20068;-75
2022/03/01 05:14:43;;;;;;;2.03;0.50;;;;;;;14.53;100.00;101120.88;5052678;28;20045;-74
2022/03/01 05:17:12;;;;;;;3.50;0.40;;;;;;;14.45;100.00;101122.44;5052562;28;20514;-74
2022/03/01 05:19:41;;;;;;;1.98;0.57;;;;;;;14.36;100.00;101117.97;5052461;28;20211;-75
2022/03/01 05:22:09;;;;;;;1.38;0.35;;;;;;;14.26;100.00;101131.63;5052283;28;20107;-76
2022/03/01 05:24:38;;;;;;;2.25;0.50;;;;;;;14.17;100.00;101128.81;5052292;28;20107;-77
2022/03/01 05:27:08;;;;;;;1.60;0.52;;;;;;;14.10;100.00;101127.81;5052794;28;20102;-76
2022/03/01 05:29:36;;;;;;;0.45;0.30;;;;;;;14.02;100.00;101135.47;5052435;28;20106;-77
2022/03/01 05:32:06;;;;;;;2.08;0.50;;;;;;;13.99;100.00;101131.91;5052120;28;20053;-75
2022/03/01 05:34:34;;;;;;;1.38;0.60;;;;;;;13.93;100.00;101142.22;5051898;28;20149;-75
2022/03/01 05:37:03;;;;;;;1.00;0.47;;;;;;;13.86;100.00;101149.00;5051769;28;20044;-75
2022/03/01 05:39:31;;;;;;;2.45;0.60;;;;;;;13.82;100.00;101139.34;5052507;28;20045;-76
2022/03/01 05:42:00;;;;;;;4.05;0.70;;;;;;;13.76;100.00;101137.47;5052290;28;20111;-76
2022/03/01 05:44:30;;;;;;;1.17;0.40;;;;;;;13.64;100.00;101134.63;5051929;28;20095;-77
2022/03/01 05:46:59;;;;;;;1.52;0.40;;;;;;;13.60;100.00;101148.38;5055258;28;20045;-75
2022/03/01 05:49:27;;;;;;;1.35;0.65;;;;;;;13.58;100.00;101144.88;5052827;28;20061;-76
2022/03/01 05:51:56;;;;;;;1.42;0.65;;;;;;;13.48;100.00;101138.56;5045920;28;20053;-76
2022/03/01 05:54:24;;;;;;;2.75;0.85;;;;;;;13.38;100.00;101134.00;5044186;28;20052;-76
2022/03/01 05:56:52;;;;;;;0.93;0.50;;;;;;;13.33;100.00;101128.69;5051868;28;20538;-77
2022/03/01 05:59:21;;;;;;;1.20;0.63;;;;;;;13.27;100.00;101143.22;5051765;28;20095;-78
2022/03/01 06:01:51;;;;;;;1.30;0.55;;;;;;;13.14;100.00;101136.84;5051834;28;20044;-77
2022/03/01 06:04:20;;;;;;;2.00;0.40;;;;;;;13.14;100.00;101136.84;5051636;28;20061;-77
2022/03/01 06:06:48;;;;;;;0.90;0.40;;;;;;;13.12;100.00;101138.50;5052683;28;20076;-76
2022/03/01 06:09:16;;;;;;;2.78;0.50;;;;;;;13.08;100.00;101136.69;5051423;28;20553;-80
2022/03/01 06:11:45;;;;;;;2.65;0.55;;;;;;;13.06;100.00;101140.97;5050624;28;20103;-78
2022/03/01 06:14:13;;;;;;;1.45;0.52;;;;;;;13.01;100.00;101143.47;5051535;28;20081;-74
2022/03/01 06:16:42;;;;;;;1.58;0.60;;;;;;;13.00;100.00;101154.69;5050879;28;20049;-79
2022/03/01 06:19:12;;;;;;;2.35;1.17;;;;;;;12.95;100.00;101146.75;5051545;28;20534;-76
2022/03/01 06:21:41;;;;;;;2.00;0.40;;;;;;;12.96;100.00;101148.53;5050911;28;20056;-79
2022/03/01 06:24:09;;;;;;;0.98;0.50;;;;;;;12.96;100.00;101150.22;5050712;28;20091;-77
2022/03/01 06:26:38;;;;;;;1.48;0.65;;;;;;;12.92;100.00;101149.28;5050783;28;20486;-77
2022/03/01 06:29:07;;;;;;;1.20;0.60;;;;;;;12.90;100.00;101160.47;5051884;28;20438;-79
2022/03/01 06:31:35;;;;;;;4.63;0.57;;;;;;;12.88;100.00;101151.78;5051280;28;20044;-77
2022/03/01 06:34:04;;;;;;;0.52;0.50;;;;;;;12.88;100.00;101160.44;5050691;28;20049;-77
2022/03/01 06:36:34;;;;;;;0.47;0.32;;;;;;;12.89;100.00;101156.09;5050953;28;20044;-77
2022/03/01 06:39:03;;;;;;;0.47;0.30;;;;;;;12.86;100.00;101153.44;5051256;28;20080;-76
2022/03/01 06:41:31;;;;;;;1.38;0.40;;;;;;;12.85;100.00;101156.84;5052263;28;20118;-79
2022/03/01 06:44:00;;;;;;;0.57;0.22;;;;;;;12.87;100.00;101148.25;5052241;28;20060;-77
2022/03/01 06:46:29;;;;;;;0.98;0.40;;;;;;;12.83;100.00;101158.53;5051646;28;20057;-82
2022/03/01 06:48:58;;;;;;;0.95;0.40;;;;;;;12.83;100.00;101166.31;5051481;28;20069;-80
2022/03/01 06:51:27;;;;;;;2.25;0.50;;;;;;;12.87;100.00;101155.19;5049258;28;20075;-80
2022/03/01 06:53:57;;;;;;;0.80;0.40;;;;;;;12.89;100.00;101156.09;5038684;28;20098;-77
2022/03/01 06:56:25;;;;;;;0.88;0.40;;;;;;;12.86;100.00;101153.44;5051998;28;20067;-76
2022/03/01 06:58:54;;;;;;;1.27;0.60;;;;;;;12.80;100.00;101156.72;5036909;28;20049;-74
2022/03/01 07:01:22;;;;;;;1.20;0.40;;;;;;;12.82;100.00;101149.00;5050675;28;20622;-75
2022/03/01 07:03:51;;;;;;;1.30;0.45;;;;;;;12.83;100.00;101150.75;5050184;28;20045;-75
2022/03/01 07:06:19;;;;;;;1.80;0.45;;;;;;;12.79;100.00;101161.06;5052491;28;20052;-77
2022/03/01 07:08:49;;;;;;;2.42;0.40;;;;;;;12.74;100.00;101156.59;5050836;28;20048;-76
2022/03/01 07:11:19;;;;;;;0.30;0.25;;;;;;;12.77;100.00;101157.53;5037904;28;20041;-76
2022/03/01 07:13:48;;;;;;;1.25;0.47;;;;;;;12.75;100.00;101156.63;5050574;28;20080;-77
2022/03/01 07:16:16;;;;;;;1.58;0.82;;;;;;;12.74;100.00;101151.41;5050339;28;20529;-76
2022/03/01 07:18:45;;;;;;;1.42;0.60;;;;;;;12.69;100.00;101159.06;5051046;28;20502;-75
2022/03/01 07:21:14;;;;;;;0.52;0.30;;;;;;;12.67;100.00;101171.13;5050562;28;20094;-75
2022/03/01 07:23:42;;;;;;;0.60;0.45;;;;;;;12.69;100.00;101163.34;5049786;28;20049;-76
2022/03/01 07:26:10;;;;;;;0.57;0.55;;;;;;;12.67;100.00;101168.53;5050129;28;20052;-75
2022/03/01 07:28:41;;;;;;;2.67;0.40;;;;;;;12.67;100.00;101171.13;5050931;28;20510;-75
2022/03/01 07:31:09;;;;;;;3.10;0.47;;;;;;;12.66;100.00;101178.84;5050616;28;20099;-76
2022/03/01 07:33:39;;;;;;;0.75;0.47;;;;;;;12.66;100.00;101195.31;5049527;28;20045;-75
2022/03/01 07:36:08;;;;;;;2.72;1.05;;;;;;;12.67;100.00;101196.22;5050855;28;20506;-75
2022/03/01 07:38:36;;;;;;;0.40;0.30;;;;;;;12.64;100.00;101191.78;5052379;28;20459;-74
2022/03/01 07:41:05;;;;;;;0.50;0.30;;;;;;;12.65;100.00;101196.16;5051181;28;20578;-77
2022/03/01 07:43:33;;;;;;;1.65;0.28;;;;;;;12.64;100.00;101199.56;5050421;28;20049;-76
2022/03/01 07:46:05;;;;;;;0.25;0.20;;;;;;;12.65;100.00;101205.69;5050341;28;20041;-76
2022/03/01 07:48:33;;;;;;;0.80;0.30;;;;;;;12.65;100.00;101203.94;5050030;28;20049;-75
2022/03/01 07:51:02;;;;;;;2.08;0.40;;;;;;;12.66;100.00;101200.50;5050063;28;20128;-75
2022/03/01 07:53:30;;;;;;;1.00;0.30;;;;;;;12.66;100.00;101210.88;5049463;28;20049;-75
2022/03/01 07:55:58;;;;;;;0.20;0.20;;;;;;;12.69;100.00;101199.69;5050274;28;20102;-75
2022/03/01 07:58:28;;;;;;;0.90;0.50;;;;;;;12.67;100.00;101202.28;5049736;28;20049;-75
2022/03/01 08:00:56;;;;;;;1.10;0.30;;;;;;;12.68;100.00;101198.84;5050244;28;20041;-75
2022/03/01 08:03:26;;;;;;;1.40;0.40;;;;;;;12.69;100.00;101203.22;5049688;28;20825;-75
2022/03/01 08:05:55;;;;;;;1.25;0.35;;;;;;;12.68;100.00;101210.94;5050510;28;20603;-76
2022/03/01 08:08:24;;;;;;;0.45;0.30;;;;;;;12.70;100.00;101201.47;5050029;28;20049;-76
2022/03/01 08:10:52;;;;;;;1.13;0.30;;;;;;;12.70;100.00;101212.75;5049168;28;20053;-75
2022/03/01 08:13:21;;;;;;;2.40;0.30;;;;;;;12.69;100.00;101211.00;5049198;28;20114;-75
2022/03/01 08:15:49;;;;;;;1.25;0.50;;;;;;;12.70;100.00;101212.75;5049714;28;20537;-75
2022/03/01 08:18:18;;;;;;;0.40;0.38;;;;;;;12.69;100.00;101223.97;5049421;28;20045;-76
2022/03/01 08:20:48;;;;;;;0.50;0.40;;;;;;;12.67;100.00;101216.97;5049547;28;20484;-76
2022/03/01 08:23:16;;;;;;;0.85;0.28;;;;;;;12.66;100.00;101216.06;5048770;28;20755;-75
2022/03/01 08:25:45;;;;;;;0.63;0.40;;;;;;;12.68;100.00;101214.41;5049674;28;20429;-75
2022/03/01 08:28:15;;;;;;;0.82;0.25;;;;;;;12.71;100.00;101211.91;5049560;28;20491;-74
2022/03/01 08:30:43;;;;;;;0.50;0.30;;;;;;;12.70;100.00;101217.94;5049793;28;20540;-76
2022/03/01 08:33:15;;;;;;;0.70;0.35;;;;;;;12.70;100.00;101224.84;5049176;28;20094;-75
2022/03/01 08:35:43;;;;;;;2.83;0.30;;;;;;;12.69;100.00;101229.16;5054097;28;20052;-75
2022/03/01 08:38:13;;;;;;;0.65;0.40;;;;;;;12.70;100.00;101227.44;5054369;28;20049;-75
2022/03/01 08:40:42;;;;;;;0.57;0.30;;;;;;;12.68;100.00;101234.31;5054336;28;20064;-76
2022/03/01 08:43:12;;;;;;;0.30;0.10;;;;;;;12.67;100.00;101228.25;5053548;28;20056;-76
2022/03/01 08:45:41;;;;;;;0.40;0.20;;;;;;;12.70;100.00;101238.69;5053427;28;20048;-76
2022/03/01 08:48:10;;;;;;;0.85;0.20;;;;;;;12.73;100.00;101243.97;5053348;28;20057;-76
2022/03/01 08:50:39;;;;;;;0.98;0.20;;;;;;;12.74;100.00;101245.75;5053913;28;20503;-76
2022/03/01 08:53:10;;;;;;;2.15;0.30;;;;;;;12.76;100.00;101249.28;5039579;28;20085;-75
2022/03/01 08:55:41;;;;;;;1.17;0.38;;;;;;;12.78;100.00;101242.41;5054010;28;20490;-76
2022/03/01 08:58:10;;;;;;;0.30;0.20;;;;;;;12.81;100.00;101249.41;5053564;28;20091;-76
2022/03/01 09:00:38;;;;;;;0.43;0.30;;;;;;;12.82;100.00;101247.69;5053964;28;20049;-76
2022/03/01 09:03:07;;;;;;;1.55;0.40;;;;;;;12.81;100.00;101246.81;5043232;28;20483;-77
2022/03/01 09:05:36;;;;;;;0.57;0.28;;;;;;;12.80;100.00;101250.22;5047698;28;20056;-76
2022/03/01 09:08:05;;;;;;;0.30;0.22;;;;;;;12.79;100.00;101249.34;5041226;28;20106;-76
2022/03/01 09:10:34;;;;;;;0.85;0.30;;;;;;;12.79;100.00;101259.75;5052850;28;20455;-76
2022/03/01 09:13:04;;;;;;;0.47;0.30;;;;;;;12.81;100.00;101264.97;5052808;28;20045;-76
2022/03/01 09:15:33;;;;;;;0.75;0.40;;;;;;;12.84;100.00;101261.59;5053119;28;20048;-76
2022/03/01 09:18:03;;;;;;;0.70;0.30;;;;;;;12.83;100.00;101262.41;5053142;28;20083;-76
2022/03/01 09:20:32;;;;;;;0.55;0.30;;;;;;;12.82;100.00;101269.31;5052990;28;20092;-77
2022/03/01 09:23:01;;;;;;;1.08;0.43;;;;;;;12.77;100.00;101269.19;5052531;28;20049;-77
2022/03/01 09:25:29;;;;;;;0.20;0.20;;;;;;;12.74;100.00;101271.72;5053121;28;20099;-76
2022/03/01 09:27:58;;;;;;;0.30;0.17;;;;;;;12.75;100.00;101273.47;5052613;28;20099;-76
2022/03/01 09:30:29;;;;;;;1.17;0.20;;;;;;;12.73;100.00;101282.91;5052837;28;20045;-75
2022/03/01 09:32:58;;;;;;;0.45;0.32;;;;;;;12.73;100.00;101282.03;5055531;28;20053;-76
2022/03/01 09:35:26;;;;;;;0.73;0.47;;;;;;;12.71;100.00;101281.13;5053116;28;20049;-75
2022/03/01 09:37:55;;;;;;;0.30;0.20;;;;;;;12.71;100.00;101278.53;5052096;28;20063;-75
2022/03/01 09:40:24;;;;;;;0.45;0.20;;;;;;;12.70;100.00;101280.25;5052535;28;20041;-77
2022/03/01 09:42:54;;;;;;;0.52;0.28;;;;;;;12.67;100.00;101279.28;5052291;28;20498;-76
2022/03/01 09:45:23;;;;;;;0.70;0.30;;;;;;;12.65;100.00;101287.03;5051860;28;20143;-76
2022/03/01 09:47:54;;;;;;;1.75;0.43;;;;;;;12.67;100.00;101289.69;5052029;28;20111;-76
2022/03/01 09:50:27;;;;;;;0.55;0.20;;;;;;;12.66;100.00;101288.78;5052358;28;20486;-77
2022/03/01 09:52:56;;;;;;;0.65;0.28;;;;;;;12.63;100.00;101288.69;5052093;28;20049;-76
2022/03/01 09:55:25;;;;;;;0.25;0.10;;;;;;;12.62;100.00;101297.34;5039285;28;20041;-76
2022/03/01 09:57:54;;;;;;;1.65;0.35;;;;;;;12.58;100.00;101295.47;5052444;28;20099;-77
2022/03/01 10:00:22;;;;;;;2.20;0.38;;;;;;;12.56;100.00;101307.53;5052778;28;20041;-76
2022/03/01 10:02:57;;;;;;;0.40;0.32;;;;;;;12.54;100.00;101304.00;5051794;28;20044;-76
2022/03/01 10:05:38;;;;;;;1.75;0.30;;;;;;;12.53;100.00;101297.06;5052054;28;20045;-76
2022/03/01 10:08:14;;;;;;;1.38;0.30;;;;;;;12.51;100.00;101289.22;5052176;28;20053;-76
2022/03/01 10:10:47;;;;;;;0.43;0.43;;;;;;;12.50;100.00;101281.38;5052082;28;20053;-75
2022/03/01 10:13:16;;;;;;;0.32;0.10;;;;;;;12.46;100.00;101280.41;5051317;28;20048;-74
2022/03/01 10:15:44;;;;;;;0.60;0.30;;;;;;;12.48;100.00;101290.81;5052506;28;20045;-77
2022/03/01 10:18:17;;;;;;;0.20;0.15;;;;;;;12.45;100.00;101293.34;5052272;28;20049;-75
2022/03/01 10:20:46;;;;;;;;;;;;;;;12.46;100.00;101296.00;5052212;28;20107;-74
2022/03/01 10:23:22;;;;;;;0.25;0.13;;;;;;;12.42;100.00;101293.25;5051362;28;20071;-74
2022/03/01 10:25:50;;;;;;;1.25;0.20;;;;;;;12.42;100.00;101294.13;5050755;28;20513;-74
2022/03/01 10:28:19;;;;;;;0.38;0.30;;;;;;;12.44;100.00;101291.56;5052537;28;20095;-75
2022/03/01 10:30:47;;;;;;;0.35;0.20;;;;;;;12.42;100.00;101288.06;5053136;28;20041;-76
2022/03/01 10:33:19;;;;;;;1.05;0.30;;;;;;;12.42;100.00;101282.88;5051023;28;20102;-75
2022/03/01 10:35:59;;;;;;;1.38;0.60;;;;;;;12.40;100.00;101287.13;5051478;28;20466;-75
2022/03/01 10:38:28;;;;;;;0.80;0.20;;;;;;;12.40;100.00;101297.50;5051097;28;20041;-75
2022/03/01 10:40:59;;;;;;;0.52;0.20;;;;;;;12.39;100.00;101295.72;5051036;28;20123;-74
2022/03/01 10:43:29;;;;;;;0.65;0.40;;;;;;;12.38;100.00;101288.78;5050908;28;20049;-75
2022/03/01 10:46:02;;;;;;;0.20;0.20;;;;;;;12.38;100.00;101286.19;5050845;28;20052;-74
2022/03/01 10:48:34;;;;;;;0.25;0.25;;;;;;;12.36;100.00;101289.63;5043308;28;20049;-75
2022/03/01 10:51:04;;;;;;;0.60;0.60;;;;;;;12.39;100.00;101285.34;5050974;28;20124;-74
2022/03/01 10:53:34;;;;;;;0.55;0.25;;;;;;;12.40;100.00;101279.34;5031050;28;20095;-74
2022/03/01 10:56:04;;;;;;;0.17;0.13;;;;;;;12.41;100.00;101288.88;5045276;28;20095;-74
2022/03/01 10:58:33;;;;;;;0.73;0.32;;;;;;;12.40;100.00;101292.31;5037458;28;20523;-74
2022/03/01 11:01:02;;;;;;;1.35;0.45;;;;;;;12.38;100.00;101287.06;5051501;28;20051;-74
2022/03/01 11:03:32;;;;;;;0.50;0.20;;;;;;;12.39;100.00;101293.13;5050632;28;20734;-75
2022/03/01 11:06:01;;;;;;;4.32;0.52;;;;;;;12.38;100.00;101301.78;5052280;27;20085;-74
2022/03/01 11:08:34;;;;;;;0.40;0.30;;;;;;;12.38;100.00;101301.78;5039149;28;20053;-74
2022/03/01 11:11:04;;;;;;;0.85;0.30;;;;;;;12.36;100.00;101299.13;5031337;28;20049;-74
2022/03/01 11:13:35;;;;;;;1.35;0.30;;;;;;;12.34;100.00;101299.06;5030058;28;20121;-75
2022/03/01 11:16:30;;;;;;;0.55;0.30;;;;;;;12.32;100.00;101285.19;5031367;28;20049;-75
2022/03/01 11:19:11;;;;;;;0.68;0.30;;;;;;;12.33;100.00;101294.72;5015087;28;20041;-74
2022/03/01 11:21:43;;;;;;;0.80;0.40;;;;;;;12.33;100.00;101283.47;5030612;28;20053;-74
2022/03/01 11:24:16;;;;;;;0.32;0.25;;;;;;;12.32;100.00;101285.19;5045297;28;20499;-74
2022/03/01 11:26:44;;;;;;;0.30;0.20;;;;;;;12.27;100.00;101291.94;5034526;28;20053;-74